createdAt,value
2022-12-07T00:00:04.674Z,2.10
2022-12-07T00:02:11.933Z,2.00
2022-12-07T00:04:07.279Z,2.10
2022-12-07T00:05:58.058Z,2.10
2022-12-07T00:07:45.204Z,2.00
2022-12-07T00:09:32.602Z,2.00
2022-12-07T00:11:21.925Z,2.00
2022-12-07T00:13:08.953Z,2.00
2022-12-07T00:14:56.293Z,2.00
2022-12-07T00:16:44.685Z,2.00
2022-12-07T00:18:32.427Z,2.00
2022-12-07T00:20:19.678Z,2.00
2022-12-07T00:22:06.717Z,2.00
2022-12-07T00:23:55.510Z,2.00
2022-12-07T00:25:42.858Z,2.00
2022-12-07T00:27:29.858Z,1.90
2022-12-07T00:29:22.873Z,2.00
2022-12-07T00:31:12.776Z,2.00
2022-12-07T00:32:59.732Z,2.00
2022-12-07T00:34:46.746Z,2.00
2022-12-07T00:36:34.174Z,1.90
2022-12-07T00:38:21.137Z,1.90
2022-12-07T00:40:08.697Z,1.90
2022-12-07T00:41:55.968Z,1.90
2022-12-07T00:43:44.479Z,1.90
2022-12-07T00:45:31.627Z,1.90
2022-12-07T00:47:18.965Z,1.90
2022-12-07T00:49:06.528Z,1.90
2022-12-07T00:50:53.928Z,1.80
2022-12-07T00:52:41.183Z,1.80
2022-12-07T00:54:28.176Z,1.80
2022-12-07T00:56:18.003Z,1.80
2022-12-07T00:58:05.341Z,1.80
2022-12-07T00:59:56.183Z,1.80
2022-12-07T01:01:43.459Z,1.80
2022-12-07T01:03:31.405Z,1.80
2022-12-07T01:05:18.655Z,1.80
2022-12-07T01:07:05.713Z,1.80
2022-12-07T01:08:54.004Z,1.80
2022-12-07T01:10:41.257Z,1.70
2022-12-07T01:12:28.390Z,1.80
2022-12-07T01:14:15.718Z,1.80
2022-12-07T01:16:05.359Z,1.80
2022-12-07T01:17:52.593Z,1.70
2022-12-07T01:19:39.951Z,1.70
2022-12-07T01:21:29.544Z,1.70
2022-12-07T01:23:16.726Z,1.70
2022-12-07T01:25:04.443Z,1.70
2022-12-07T01:26:51.534Z,1.70
2022-12-07T01:28:39.145Z,1.70
2022-12-07T01:30:26.468Z,1.70
2022-12-07T01:32:13.586Z,1.60
2022-12-07T01:34:01.707Z,1.70
2022-12-07T01:35:48.993Z,1.60
2022-12-07T01:37:38.016Z,1.70
2022-12-07T01:39:25.806Z,1.70
2022-12-07T01:41:13.533Z,1.70
2022-12-07T01:43:00.716Z,1.70
2022-12-07T01:45:19.231Z,1.70
2022-12-07T01:47:07.881Z,1.80
2022-12-07T01:48:55.045Z,1.80
2022-12-07T01:50:44.514Z,1.80
2022-12-07T01:52:34.443Z,1.80
2022-12-07T01:54:22.877Z,1.80
2022-12-07T01:56:13.697Z,1.80
2022-12-07T01:58:01.178Z,1.80
2022-12-07T01:59:51.022Z,1.80
2022-12-07T02:01:38.512Z,1.80
2022-12-07T02:03:34.809Z,1.70
2022-12-07T02:05:22.989Z,1.80
2022-12-07T02:07:10.240Z,1.80
2022-12-07T02:08:57.498Z,1.80
2022-12-07T02:10:44.810Z,1.80
2022-12-07T02:12:32.025Z,1.80
2022-12-07T02:14:19.359Z,1.80
2022-12-07T02:16:20.323Z,1.80
2022-12-07T02:18:17.208Z,1.70
2022-12-07T02:20:07.848Z,1.80
2022-12-07T02:22:43.195Z,1.80
2022-12-07T02:24:55.219Z,1.80
2022-12-07T02:27:00.245Z,1.80
2022-12-07T02:29:05.411Z,1.80
2022-12-07T02:30:55.980Z,1.80
2022-12-07T02:33:03.788Z,1.80
2022-12-07T02:34:58.372Z,1.80
2022-12-07T02:36:51.130Z,1.80
2022-12-07T02:38:47.137Z,1.80
2022-12-07T02:40:43.373Z,1.80
2022-12-07T02:42:42.918Z,1.80
2022-12-07T02:44:33.213Z,1.80
2022-12-07T02:46:28.087Z,1.80
2022-12-07T02:48:18.390Z,1.70
2022-12-07T02:50:07.420Z,1.70
2022-12-07T02:51:54.643Z,1.70
2022-12-07T02:53:44.021Z,1.80
2022-12-07T02:55:42.301Z,1.70
2022-12-07T02:57:52.707Z,1.70
2022-12-07T03:00:05.236Z,1.70
2022-12-07T03:02:19.060Z,1.70
2022-12-07T03:04:38.569Z,1.70
2022-12-07T03:06:35.338Z,1.70
2022-12-07T03:08:28.684Z,1.80
2022-12-07T03:10:27.929Z,1.70
2022-12-07T03:12:20.324Z,1.70
2022-12-07T03:14:18.213Z,1.70
2022-12-07T03:16:05.348Z,1.70
2022-12-07T03:17:53.995Z,1.70
2022-12-07T03:19:44.020Z,1.80
2022-12-07T03:21:39.572Z,1.80
2022-12-07T03:23:27.884Z,1.70
2022-12-07T03:25:17.726Z,1.70
2022-12-07T03:27:15.932Z,1.70
2022-12-07T03:29:08.878Z,1.70
2022-12-07T03:31:13.453Z,1.70
2022-12-07T03:33:09.586Z,1.70
2022-12-07T03:35:08.087Z,1.70
2022-12-07T03:37:05.467Z,1.70
2022-12-07T03:39:10.439Z,1.70
2022-12-07T03:41:10.702Z,1.70
2022-12-07T03:43:00.887Z,1.70
2022-12-07T03:44:48.891Z,1.70
2022-12-07T03:46:45.153Z,1.60
2022-12-07T03:48:42.209Z,1.60
2022-12-07T03:50:56.796Z,1.60
2022-12-07T03:52:50.255Z,1.60
2022-12-07T03:55:01.485Z,1.60
2022-12-07T03:56:49.974Z,1.60
2022-12-07T03:58:38.135Z,1.60
2022-12-07T04:00:25.582Z,1.60
2022-12-07T04:02:14.726Z,1.60
2022-12-07T04:04:01.822Z,1.60
2022-12-07T04:05:49.350Z,1.60
2022-12-07T04:07:36.425Z,1.60
2022-12-07T04:09:23.797Z,1.60
2022-12-07T04:11:11.103Z,1.50
2022-12-07T04:12:58.153Z,1.60
2022-12-07T04:14:45.202Z,1.50
2022-12-07T04:16:32.714Z,1.60
2022-12-07T04:18:20.055Z,1.60
2022-12-07T04:20:08.395Z,1.60
2022-12-07T04:21:56.874Z,1.50
2022-12-07T04:23:43.945Z,1.60
2022-12-07T04:25:31.188Z,1.60
2022-12-07T04:27:18.541Z,1.60
2022-12-07T04:29:07.811Z,1.60
2022-12-07T04:30:55.908Z,1.60
2022-12-07T04:32:43.251Z,1.50
2022-12-07T04:34:30.403Z,1.50
2022-12-07T04:36:17.698Z,1.50
2022-12-07T04:38:05.246Z,1.50
2022-12-07T04:39:52.389Z,1.50
2022-12-07T04:41:39.476Z,1.50
2022-12-07T04:43:26.783Z,1.50
2022-12-07T04:45:13.916Z,1.50
2022-12-07T04:47:01.235Z,1.50
2022-12-07T04:48:49.516Z,1.50
2022-12-07T04:50:44.510Z,1.50
2022-12-07T04:52:34.298Z,1.50
2022-12-07T04:54:24.725Z,1.40
2022-12-07T04:56:12.271Z,1.50
2022-12-07T04:57:59.351Z,1.50
2022-12-07T04:59:47.337Z,1.40
2022-12-07T05:01:35.029Z,1.40
2022-12-07T05:03:22.127Z,1.50
2022-12-07T05:05:09.488Z,1.40
2022-12-07T05:06:56.698Z,1.50
2022-12-07T05:08:44.136Z,1.50
2022-12-07T05:10:31.514Z,1.50
2022-12-07T05:12:18.482Z,1.50
2022-12-07T05:14:14.901Z,1.50
2022-12-07T05:16:02.445Z,1.40
2022-12-07T05:17:49.602Z,1.40
2022-12-07T05:19:36.683Z,1.40
2022-12-07T05:21:24.289Z,1.50
2022-12-07T05:23:11.887Z,1.50
2022-12-07T05:24:59.041Z,1.40
2022-12-07T05:26:46.663Z,1.50
2022-12-07T05:28:33.728Z,1.50
2022-12-07T05:30:20.859Z,1.50
2022-12-07T05:32:08.943Z,1.50
2022-12-07T05:33:56.194Z,1.50
2022-12-07T05:35:43.277Z,1.50
2022-12-07T05:37:30.560Z,1.50
2022-12-07T05:39:17.691Z,1.50
2022-12-07T05:41:07.232Z,1.50
2022-12-07T05:42:55.094Z,1.50
2022-12-07T05:44:47.520Z,1.50
2022-12-07T05:46:34.768Z,1.50
2022-12-07T05:48:22.265Z,1.50
2022-12-07T05:50:09.491Z,1.50
2022-12-07T05:51:56.602Z,1.50
2022-12-07T05:53:43.982Z,1.50
2022-12-07T05:55:30.958Z,1.50
2022-12-07T05:57:18.062Z,1.50
2022-12-07T05:59:23.452Z,1.50
2022-12-07T06:01:10.486Z,1.60
2022-12-07T06:02:58.050Z,1.60
2022-12-07T06:04:46.624Z,1.60
2022-12-07T06:06:33.778Z,1.60
2022-12-07T06:08:21.026Z,1.60
2022-12-07T06:10:09.552Z,1.60
2022-12-07T06:12:16.379Z,1.60
2022-12-07T06:14:04.235Z,1.60
2022-12-07T06:15:51.544Z,1.60
2022-12-07T06:17:38.782Z,1.60
2022-12-07T06:19:25.962Z,1.60
2022-12-07T06:21:13.257Z,1.70
2022-12-07T06:23:00.350Z,1.80
2022-12-07T06:24:47.463Z,1.70
2022-12-07T06:26:34.962Z,1.70
2022-12-07T06:28:22.079Z,1.70
2022-12-07T06:30:10.031Z,1.70
2022-12-07T06:31:57.613Z,1.70
2022-12-07T06:33:44.824Z,1.70
2022-12-07T06:35:34.357Z,1.70
2022-12-07T06:37:22.028Z,1.60
2022-12-07T06:39:10.207Z,1.70
2022-12-07T06:40:57.372Z,1.70
2022-12-07T06:42:44.839Z,1.70
2022-12-07T06:44:32.087Z,1.70
2022-12-07T06:46:19.790Z,1.70
2022-12-07T06:48:07.352Z,1.70
2022-12-07T06:49:54.606Z,1.70
2022-12-07T06:51:44.981Z,1.70
2022-12-07T06:53:32.392Z,1.70
2022-12-07T06:55:19.752Z,1.70
2022-12-07T06:57:06.952Z,1.70
2022-12-07T06:58:54.499Z,1.90
2022-12-07T07:00:41.791Z,2.10
2022-12-07T07:02:30.504Z,2.10
2022-12-07T07:04:18.086Z,2.10
2022-12-07T07:06:06.496Z,2.00
2022-12-07T07:08:21.414Z,2.00
2022-12-07T07:10:05.308Z,2.00
2022-12-07T07:11:52.938Z,2.00
2022-12-07T07:13:40.377Z,2.00
2022-12-07T07:15:27.791Z,2.00
2022-12-07T07:17:14.991Z,2.00
2022-12-07T07:19:02.188Z,2.00
2022-12-07T07:20:50.894Z,1.90
2022-12-07T07:22:38.074Z,1.90
2022-12-07T07:24:25.121Z,1.90
2022-12-07T07:26:12.720Z,1.90
2022-12-07T07:28:00.499Z,1.90
2022-12-07T07:29:47.717Z,1.90
2022-12-07T07:31:38.257Z,1.90
2022-12-07T07:33:25.353Z,1.90
2022-12-07T07:35:12.639Z,1.90
2022-12-07T07:37:00.079Z,1.90
2022-12-07T07:38:47.346Z,1.90
2022-12-07T07:40:34.667Z,1.90
2022-12-07T07:42:22.157Z,1.90
2022-12-07T07:44:10.314Z,2.00
2022-12-07T07:45:57.466Z,2.00
2022-12-07T07:47:44.906Z,1.90
2022-12-07T07:49:32.153Z,1.90
2022-12-07T07:51:19.265Z,1.90
2022-12-07T07:53:06.683Z,1.90
2022-12-07T07:54:53.976Z,1.90
2022-12-07T07:56:41.154Z,1.90
2022-12-07T07:58:28.663Z,1.90
2022-12-07T08:00:16.837Z,1.90
2022-12-07T08:02:03.981Z,1.90
2022-12-07T08:03:51.439Z,1.90
2022-12-07T08:05:39.275Z,1.90
2022-12-07T08:07:26.638Z,1.90
2022-12-07T08:09:14.241Z,1.90
2022-12-07T08:11:02.613Z,2.00
2022-12-07T08:13:08.482Z,1.90
2022-12-07T08:14:55.918Z,1.90
2022-12-07T08:16:42.978Z,1.90
2022-12-07T08:18:30.142Z,1.90
2022-12-07T08:20:17.573Z,1.90
2022-12-07T08:22:04.918Z,1.90
2022-12-07T08:23:52.042Z,1.90
2022-12-07T08:25:40.080Z,1.90
2022-12-07T08:27:28.341Z,1.90
2022-12-07T08:29:15.505Z,1.90
2022-12-07T08:31:06.137Z,1.90
2022-12-07T08:32:53.709Z,1.90
2022-12-07T08:34:40.911Z,2.00
2022-12-07T08:36:28.496Z,2.00
2022-12-07T08:38:15.637Z,2.00
2022-12-07T08:40:03.537Z,1.90
2022-12-07T08:41:51.104Z,1.90
2022-12-07T08:43:38.597Z,1.90
2022-12-07T08:45:27.677Z,1.90
2022-12-07T08:47:15.660Z,2.00
2022-12-07T08:49:17.530Z,2.00
2022-12-07T08:51:04.974Z,2.00
2022-12-07T08:52:56.028Z,2.00
2022-12-07T08:54:43.302Z,2.00
2022-12-07T08:56:30.648Z,2.00
2022-12-07T08:58:18.237Z,2.00
2022-12-07T09:00:06.348Z,2.00
2022-12-07T09:01:53.878Z,1.90
2022-12-07T09:03:41.392Z,1.90
2022-12-07T09:05:29.125Z,1.90
2022-12-07T09:07:16.463Z,1.90
2022-12-07T09:09:04.937Z,1.90
2022-12-07T09:10:52.133Z,1.90
2022-12-07T09:12:39.261Z,1.90
2022-12-07T09:14:26.655Z,1.90
2022-12-07T09:16:13.954Z,1.90
2022-12-07T09:18:01.192Z,1.90
2022-12-07T09:19:48.700Z,1.90
2022-12-07T09:21:35.754Z,1.90
2022-12-07T09:23:23.165Z,1.90
2022-12-07T09:25:10.955Z,1.90
2022-12-07T09:26:58.678Z,1.90
2022-12-07T09:28:45.990Z,1.90
2022-12-07T09:30:42.779Z,1.90
2022-12-07T09:32:40.709Z,1.90
2022-12-07T09:34:28.085Z,1.90
2022-12-07T09:36:15.581Z,1.80
2022-12-07T09:38:02.664Z,1.90
2022-12-07T09:39:50.649Z,1.80
2022-12-07T09:41:43.783Z,1.90
2022-12-07T09:43:30.989Z,1.90
2022-12-07T09:45:25.569Z,1.90
2022-12-07T09:47:13.109Z,1.90
2022-12-07T09:49:00.630Z,1.90
2022-12-07T09:50:49.820Z,1.90
2022-12-07T09:52:39.224Z,1.90
2022-12-07T09:54:26.666Z,1.80
2022-12-07T09:56:15.909Z,1.90
2022-12-07T09:58:03.534Z,1.90
2022-12-07T09:59:50.735Z,1.80
2022-12-07T10:01:40.809Z,1.90
2022-12-07T10:03:29.508Z,1.90
2022-12-07T10:05:42.099Z,1.90
2022-12-07T10:07:29.177Z,1.90
2022-12-07T10:09:18.918Z,1.90
2022-12-07T10:11:11.494Z,1.90
2022-12-07T10:13:07.695Z,1.90
2022-12-07T10:15:09.158Z,1.90
2022-12-07T10:16:56.819Z,1.90
2022-12-07T10:18:44.931Z,1.90
2022-12-07T10:20:32.341Z,1.90
2022-12-07T10:22:19.455Z,1.90
2022-12-07T10:24:16.051Z,2.00
2022-12-07T10:26:29.358Z,2.00
2022-12-07T10:28:19.369Z,2.00
2022-12-07T10:30:15.480Z,2.00
2022-12-07T10:32:06.039Z,2.00
2022-12-07T10:33:56.522Z,2.00
2022-12-07T10:35:46.456Z,2.00
2022-12-07T10:37:42.215Z,1.90
2022-12-07T10:39:29.424Z,2.30
2022-12-07T10:41:17.409Z,2.60
2022-12-07T10:43:12.959Z,2.70
2022-12-07T10:45:17.937Z,2.80
2022-12-07T10:47:40.237Z,2.60
2022-12-07T10:49:40.778Z,2.40
2022-12-07T10:51:47.128Z,2.20
2022-12-07T10:53:57.232Z,2.10
2022-12-07T10:56:09.099Z,2.00
2022-12-07T10:58:20.141Z,2.00
2022-12-07T11:00:20.585Z,2.00
2022-12-07T11:02:22.829Z,2.00
2022-12-07T11:04:52.191Z,2.10
2022-12-07T11:06:52.849Z,2.00
2022-12-07T11:08:52.681Z,2.00
2022-12-07T11:10:56.290Z,1.90
2022-12-07T11:12:52.787Z,1.90
2022-12-07T11:15:12.443Z,1.90
2022-12-07T11:17:32.314Z,1.90
2022-12-07T11:19:31.303Z,2.00
2022-12-07T11:21:30.275Z,2.10
2022-12-07T11:23:39.480Z,2.00
2022-12-07T11:25:41.099Z,1.90
2022-12-07T11:27:45.677Z,1.80
2022-12-07T11:29:49.032Z,1.80
2022-12-07T11:31:36.662Z,1.80
2022-12-07T11:33:42.777Z,1.80
2022-12-07T11:35:53.813Z,1.90
2022-12-07T11:37:44.005Z,1.80
2022-12-07T11:39:40.253Z,1.90
2022-12-07T11:41:34.068Z,1.90
2022-12-07T11:43:28.757Z,1.90
2022-12-07T11:45:20.729Z,1.90
2022-12-07T11:47:18.060Z,2.00
2022-12-07T11:49:28.944Z,2.00
2022-12-07T11:51:19.436Z,2.00
2022-12-07T11:53:09.214Z,2.00
2022-12-07T11:54:59.474Z,2.10
2022-12-07T11:56:52.527Z,2.10
2022-12-07T11:58:49.771Z,2.10
2022-12-07T12:00:40.244Z,2.10
2022-12-07T12:02:50.400Z,2.10
2022-12-07T12:04:52.845Z,2.10
2022-12-07T12:06:42.775Z,2.00
2022-12-07T12:11:21.828Z,2.10
2022-12-07T12:16:00.750Z,2.30
2022-12-07T12:18:15.745Z,2.30
2022-12-07T12:20:35.379Z,2.30
2022-12-07T12:22:29.275Z,2.30
2022-12-07T12:24:23.157Z,2.20
2022-12-07T12:26:21.112Z,2.20
2022-12-07T12:28:49.919Z,2.20
2022-12-07T12:30:40.883Z,2.20
2022-12-07T12:32:40.430Z,2.20
2022-12-07T12:34:34.420Z,2.20
2022-12-07T12:36:34.280Z,2.20
2022-12-07T12:38:54.778Z,2.30
2022-12-07T12:40:50.064Z,2.30
2022-12-07T12:42:48.591Z,2.30
2022-12-07T12:44:38.549Z,2.30
2022-12-07T12:46:34.945Z,2.20
2022-12-07T12:48:37.957Z,2.20
2022-12-07T12:50:31.701Z,2.20
2022-12-07T12:52:30.941Z,2.20
2022-12-07T12:54:25.017Z,2.20
2022-12-07T12:56:36.883Z,2.20
2022-12-07T12:58:32.857Z,2.20
2022-12-07T13:00:25.037Z,2.10
2022-12-07T13:02:31.264Z,2.10
2022-12-07T13:04:24.074Z,2.00
2022-12-07T13:06:25.861Z,2.00
2022-12-07T13:08:27.085Z,2.00
2022-12-07T13:10:30.361Z,1.90
2022-12-07T13:12:20.404Z,1.90
2022-12-07T13:14:42.168Z,1.90
2022-12-07T13:16:40.909Z,1.80
2022-12-07T13:18:31.716Z,1.80
2022-12-07T13:20:41.775Z,1.80
2022-12-07T13:22:32.141Z,1.80
2022-12-07T13:24:19.961Z,1.80
2022-12-07T13:26:17.882Z,1.80
2022-12-07T13:28:12.515Z,1.80
2022-12-07T13:30:00.007Z,1.80
2022-12-07T13:31:52.383Z,1.70
2022-12-07T13:33:39.820Z,1.70
2022-12-07T13:35:38.701Z,1.70
2022-12-07T13:37:36.657Z,1.70
2022-12-07T13:39:27.758Z,1.70
2022-12-07T13:41:17.854Z,1.70
2022-12-07T13:43:13.927Z,1.70
2022-12-07T13:45:20.596Z,1.70
2022-12-07T13:47:16.713Z,1.70
2022-12-07T13:49:14.895Z,1.70
2022-12-07T13:51:05.047Z,1.80
2022-12-07T13:52:56.965Z,2.00
2022-12-07T13:55:10.154Z,1.90
2022-12-07T13:56:57.661Z,1.90
2022-12-07T13:58:45.711Z,1.80
2022-12-07T14:00:33.036Z,1.80
2022-12-07T14:02:33.828Z,1.80
2022-12-07T14:04:32.167Z,1.80
2022-12-07T14:06:29.569Z,1.90
2022-12-07T14:08:17.863Z,1.90
2022-12-07T14:10:07.136Z,1.90
2022-12-07T14:11:57.047Z,1.90
2022-12-07T14:14:00.384Z,1.90
2022-12-07T14:15:51.954Z,1.90
2022-12-07T14:17:53.080Z,1.90
2022-12-07T14:19:48.643Z,1.90
2022-12-07T14:21:36.728Z,1.90
2022-12-07T14:23:26.816Z,1.80
2022-12-07T14:25:14.201Z,1.80
2022-12-07T14:27:01.578Z,1.90
2022-12-07T14:28:49.020Z,1.90
2022-12-07T14:30:36.375Z,1.80
2022-12-07T14:32:30.806Z,1.90
2022-12-07T14:34:18.204Z,1.90
2022-12-07T14:36:05.738Z,1.80
2022-12-07T14:37:53.537Z,1.80
2022-12-07T14:39:42.671Z,1.90
2022-12-07T14:41:48.971Z,1.90
2022-12-07T14:43:39.395Z,1.90
2022-12-07T14:45:32.819Z,1.80
2022-12-07T14:53:32.427Z,1.80
2022-12-07T14:55:29.211Z,1.80
2022-12-07T14:57:17.374Z,1.80
2022-12-07T14:59:06.032Z,1.80
2022-12-07T15:00:53.074Z,1.80
2022-12-07T15:02:40.520Z,1.80
2022-12-07T15:04:30.713Z,1.80
2022-12-07T15:06:19.230Z,1.70
2022-12-07T15:08:07.766Z,1.70
2022-12-07T15:09:58.084Z,1.80
2022-12-07T15:11:45.135Z,1.70
2022-12-07T15:13:51.087Z,1.70
2022-12-07T15:15:38.573Z,1.70
2022-12-07T15:17:31.626Z,1.80
2022-12-07T15:19:28.281Z,1.70
2022-12-07T15:21:17.354Z,1.70
2022-12-07T15:23:04.407Z,1.70
2022-12-07T15:24:53.629Z,1.70
2022-12-07T15:26:42.353Z,1.70
2022-12-07T15:28:29.576Z,1.70
2022-12-07T15:30:16.906Z,1.70
2022-12-07T15:32:04.349Z,1.60
2022-12-07T15:33:51.445Z,1.70
2022-12-07T15:35:45.159Z,1.70
2022-12-07T15:37:32.607Z,1.70
2022-12-07T15:39:19.859Z,1.60
2022-12-07T15:41:07.025Z,1.60
2022-12-07T15:42:54.442Z,1.60
2022-12-07T15:45:00.414Z,1.60
2022-12-07T15:46:47.932Z,1.60
2022-12-07T15:48:35.521Z,1.70
2022-12-07T15:50:23.131Z,1.70
2022-12-07T15:52:10.453Z,1.70
2022-12-07T15:53:59.879Z,1.70
2022-12-07T15:55:47.994Z,1.70
2022-12-07T15:57:38.054Z,1.70
2022-12-07T15:59:27.811Z,1.60
2022-12-07T16:01:19.713Z,1.70
2022-12-07T16:03:07.048Z,1.70
2022-12-07T16:04:55.056Z,1.60
2022-12-07T16:06:42.807Z,1.60
2022-12-07T16:08:36.228Z,1.60
2022-12-07T16:10:23.904Z,1.60
2022-12-07T16:12:11.857Z,1.60
2022-12-07T16:13:59.060Z,1.60
2022-12-07T16:15:46.795Z,1.60
2022-12-07T16:17:34.162Z,1.60
2022-12-07T16:19:21.530Z,1.60
2022-12-07T16:21:09.922Z,1.60
2022-12-07T16:22:57.542Z,1.70
2022-12-07T16:24:44.811Z,1.70
2022-12-07T16:26:33.239Z,1.70
2022-12-07T16:28:20.614Z,1.70
2022-12-07T16:30:08.418Z,1.70
2022-12-07T16:31:55.854Z,1.70
2022-12-07T16:33:45.102Z,1.70
2022-12-07T16:35:32.250Z,1.70
2022-12-07T16:37:19.726Z,1.70
2022-12-07T16:39:07.591Z,1.80
2022-12-07T16:40:55.686Z,1.80
2022-12-07T16:42:43.249Z,1.80
2022-12-07T16:44:31.796Z,1.80
2022-12-07T16:46:19.068Z,1.80
2022-12-07T16:48:06.896Z,1.80
2022-12-07T16:49:54.020Z,1.80
2022-12-07T16:51:45.860Z,1.80
2022-12-07T16:53:33.807Z,1.80
2022-12-07T16:55:20.912Z,1.80
2022-12-07T16:57:07.936Z,1.80
2022-12-07T16:58:55.792Z,1.80
2022-12-07T17:00:44.379Z,1.80
2022-12-07T17:02:31.598Z,1.80
2022-12-07T17:04:19.055Z,1.80
2022-12-07T17:06:20.382Z,1.80
2022-12-07T17:08:08.359Z,1.80
2022-12-07T17:09:55.777Z,1.70
2022-12-07T17:11:45.435Z,1.70
2022-12-07T17:13:51.569Z,1.70
2022-12-07T17:15:38.864Z,1.70
2022-12-07T17:17:25.967Z,1.70
2022-12-07T17:19:16.194Z,1.70
2022-12-07T17:21:09.744Z,1.70
2022-12-07T17:22:59.096Z,1.80
2022-12-07T17:24:46.295Z,1.80
2022-12-07T17:26:35.939Z,1.80
2022-12-07T17:28:23.423Z,1.80
2022-12-07T17:30:12.130Z,1.80
2022-12-07T17:31:59.640Z,1.80
2022-12-07T17:33:47.356Z,1.80
2022-12-07T17:35:34.710Z,1.80
2022-12-07T17:37:22.076Z,1.80
2022-12-07T17:39:15.376Z,1.80
2022-12-07T17:41:10.228Z,1.80
2022-12-07T17:42:57.648Z,1.80
2022-12-07T17:44:44.710Z,1.80
2022-12-07T17:46:33.295Z,1.80
2022-12-07T17:48:21.296Z,1.80
2022-12-07T17:50:09.027Z,1.80
2022-12-07T17:52:14.748Z,1.70
2022-12-07T17:54:02.279Z,1.70
2022-12-07T17:56:26.860Z,1.70
2022-12-07T17:58:00.869Z,1.60
2022-12-07T17:59:48.256Z,1.60
2022-12-07T18:01:36.179Z,1.50
2022-12-07T18:03:23.286Z,1.50
2022-12-07T18:05:11.381Z,1.50
2022-12-07T18:06:58.676Z,1.50
2022-12-07T18:08:45.935Z,1.50
2022-12-07T18:10:33.291Z,1.50
2022-12-07T18:12:20.644Z,1.60
2022-12-07T18:14:08.837Z,1.60
2022-12-07T18:15:58.044Z,1.50
2022-12-07T18:17:45.280Z,1.50
2022-12-07T18:19:37.207Z,1.50
2022-12-07T18:21:27.086Z,1.50
2022-12-07T18:23:14.604Z,1.40
2022-12-07T18:25:02.191Z,1.40
2022-12-07T18:26:51.371Z,1.30
2022-12-07T18:28:38.660Z,1.30
2022-12-07T18:30:49.529Z,1.40
2022-12-07T18:32:33.486Z,1.40
2022-12-07T18:34:20.767Z,1.30
2022-12-07T18:36:09.136Z,1.20
2022-12-07T18:37:56.617Z,1.20
2022-12-07T18:39:43.726Z,1.20
2022-12-07T18:41:30.966Z,1.10
2022-12-07T18:43:19.128Z,1.00
2022-12-07T18:45:07.180Z,1.00
2022-12-07T18:46:54.574Z,1.00
2022-12-07T18:48:42.387Z,0.90
2022-12-07T18:50:30.859Z,0.90
2022-12-07T18:52:18.375Z,0.90
2022-12-07T18:54:06.605Z,0.80
2022-12-07T18:56:13.731Z,0.80
2022-12-07T18:58:00.962Z,0.80
2022-12-07T18:59:49.868Z,0.80
2022-12-07T19:01:37.616Z,0.70
2022-12-07T19:03:31.353Z,0.70
2022-12-07T19:05:21.874Z,0.70
2022-12-07T19:07:09.279Z,0.70
2022-12-07T19:08:57.219Z,0.60
2022-12-07T19:10:44.820Z,0.60
2022-12-07T19:12:32.432Z,0.50
2022-12-07T19:14:27.201Z,0.50
2022-12-07T19:16:14.719Z,0.50
2022-12-07T19:18:02.056Z,0.50
2022-12-07T19:19:49.352Z,0.40
2022-12-07T19:21:37.369Z,0.40
2022-12-07T19:23:25.576Z,0.30
2022-12-07T19:25:13.948Z,0.30
2022-12-07T19:27:01.659Z,0.30
2022-12-07T19:28:49.328Z,0.30
2022-12-07T19:30:38.080Z,0.30
2022-12-07T19:32:25.773Z,0.30
2022-12-07T19:34:18.725Z,0.20
2022-12-07T19:36:06.795Z,0.20
2022-12-07T19:37:54.738Z,0.20
2022-12-07T19:39:43.738Z,0.20
2022-12-07T19:41:38.186Z,0.20
2022-12-07T19:43:25.658Z,0.10
2022-12-07T19:45:12.867Z,0.10
2022-12-07T19:47:04.985Z,0.10
2022-12-07T19:48:53.729Z,0.20
2022-12-07T19:50:41.221Z,0.20
2022-12-07T19:52:33.521Z,0.20
2022-12-07T19:54:26.947Z,0.10
2022-12-07T19:56:18.446Z,0.10
2022-12-07T19:58:05.938Z,0.20
2022-12-07T19:59:53.501Z,0.20
2022-12-07T20:01:43.721Z,0.20
2022-12-07T20:03:31.871Z,0.30
2022-12-07T20:05:19.606Z,0.30
2022-12-07T20:07:06.698Z,0.30
2022-12-07T20:08:54.347Z,0.30
2022-12-07T20:10:41.946Z,0.30
2022-12-07T20:12:47.927Z,0.40
2022-12-07T20:14:37.009Z,0.50
2022-12-07T20:16:24.726Z,0.50
2022-12-07T20:18:12.009Z,0.50
2022-12-07T20:19:59.320Z,0.60
2022-12-07T20:21:47.099Z,0.50
2022-12-07T20:23:34.193Z,0.50
2022-12-07T20:25:21.815Z,0.50
2022-12-07T20:27:09.450Z,0.50
2022-12-07T20:28:56.854Z,0.50
2022-12-07T20:30:52.547Z,0.50
2022-12-07T20:32:40.140Z,0.50
2022-12-07T20:34:27.455Z,0.60
2022-12-07T20:36:17.046Z,0.60
2022-12-07T20:38:04.782Z,0.60
2022-12-07T20:39:51.855Z,0.60
2022-12-07T20:41:58.394Z,0.60
2022-12-07T20:43:45.945Z,0.50
2022-12-07T20:45:37.765Z,0.50
2022-12-07T20:47:25.435Z,0.50
2022-12-07T20:49:13.987Z,0.50
2022-12-07T20:51:07.302Z,0.50
2022-12-07T20:53:00.334Z,0.60
2022-12-07T20:54:47.991Z,0.60
2022-12-07T20:56:36.324Z,0.60
2022-12-07T20:58:28.268Z,0.70
2022-12-07T21:00:16.609Z,0.70
2022-12-07T21:02:03.802Z,0.80
2022-12-07T21:03:55.187Z,0.80
2022-12-07T21:05:47.449Z,0.80
2022-12-07T21:07:38.352Z,0.80
2022-12-07T21:09:27.165Z,0.80
2022-12-07T21:11:15.581Z,0.80
2022-12-07T21:13:02.749Z,0.80
2022-12-07T21:14:51.059Z,0.80
2022-12-07T21:16:38.191Z,0.70
2022-12-07T21:18:25.957Z,0.70
2022-12-07T21:20:14.172Z,0.70
2022-12-07T21:22:02.117Z,0.70
2022-12-07T21:23:54.501Z,0.70
2022-12-07T21:25:46.116Z,0.70
2022-12-07T21:27:34.377Z,0.60
2022-12-07T21:29:34.638Z,0.60
2022-12-07T21:31:28.881Z,0.60
2022-12-07T21:33:16.220Z,0.50
2022-12-07T21:35:04.149Z,0.50
2022-12-07T21:36:51.818Z,0.50
2022-12-07T21:38:39.507Z,0.50
2022-12-07T21:40:26.899Z,0.50
2022-12-07T21:42:14.535Z,0.50
2022-12-07T21:44:05.554Z,0.50
2022-12-07T21:45:54.316Z,0.50
2022-12-07T21:47:41.886Z,0.50
2022-12-07T21:49:29.119Z,0.50
2022-12-07T21:51:16.803Z,0.60
2022-12-07T21:53:04.537Z,0.50
2022-12-07T21:54:51.852Z,0.60
2022-12-07T21:56:41.558Z,0.60
2022-12-07T21:58:29.821Z,0.60
2022-12-07T22:00:20.463Z,0.60
2022-12-07T22:02:14.540Z,0.60
2022-12-07T22:04:02.532Z,0.60
2022-12-07T22:05:49.752Z,0.60
2022-12-07T22:07:36.842Z,0.60
2022-12-07T22:09:24.753Z,0.60
2022-12-07T22:11:12.895Z,0.60
2022-12-07T22:13:00.677Z,0.60
2022-12-07T22:15:07.084Z,0.60
2022-12-07T22:16:54.922Z,0.60
2022-12-07T22:18:42.404Z,0.60
2022-12-07T22:20:29.791Z,0.70
2022-12-07T22:22:16.769Z,0.70
2022-12-07T22:24:05.369Z,0.70
2022-12-07T22:25:53.729Z,0.80
2022-12-07T22:27:42.036Z,0.80
2022-12-07T22:29:29.218Z,0.90
2022-12-07T22:31:18.800Z,0.90
2022-12-07T22:33:05.872Z,0.90
2022-12-07T22:34:52.983Z,0.90
2022-12-07T22:36:40.322Z,0.90
2022-12-07T22:38:28.080Z,1.00
2022-12-07T22:40:16.112Z,1.00
2022-12-07T22:42:03.586Z,1.00
2022-12-07T22:43:50.668Z,1.10
2022-12-07T22:45:39.635Z,1.10
2022-12-07T22:47:26.922Z,1.10
2022-12-07T22:49:14.003Z,1.10
2022-12-07T22:51:01.177Z,1.10
2022-12-07T22:52:48.549Z,1.00
2022-12-07T22:54:35.637Z,1.00
2022-12-07T22:56:23.299Z,1.00
2022-12-07T22:58:10.619Z,1.00
2022-12-07T23:00:13.911Z,1.00
2022-12-07T23:02:00.920Z,0.90
2022-12-07T23:03:48.554Z,0.90
2022-12-07T23:05:44.911Z,0.80
2022-12-07T23:07:31.974Z,0.80
2022-12-07T23:09:19.440Z,0.80
2022-12-07T23:11:10.356Z,0.90
2022-12-07T23:13:15.988Z,0.90
2022-12-07T23:15:05.423Z,0.90
2022-12-07T23:16:52.737Z,0.90
2022-12-07T23:18:41.756Z,0.90
2022-12-07T23:20:29.293Z,0.90
2022-12-07T23:22:16.519Z,0.90
2022-12-07T23:24:04.210Z,0.80
2022-12-07T23:25:52.014Z,0.90
2022-12-07T23:27:39.027Z,0.80
2022-12-07T23:29:26.834Z,0.80
2022-12-07T23:31:16.586Z,0.80
2022-12-07T23:33:03.717Z,0.80
2022-12-07T23:34:50.784Z,0.80
2022-12-07T23:36:38.171Z,0.90
2022-12-07T23:38:25.186Z,0.90
2022-12-07T23:40:12.396Z,0.90
2022-12-07T23:41:59.802Z,0.90
2022-12-07T23:43:47.482Z,0.90
2022-12-07T23:45:34.412Z,0.90
2022-12-07T23:47:21.719Z,0.90
2022-12-07T23:49:09.099Z,0.80
2022-12-07T23:50:58.444Z,0.80
2022-12-07T23:52:45.868Z,0.80
2022-12-07T23:54:32.929Z,0.70
2022-12-07T23:56:23.384Z,0.70
2022-12-07T23:58:10.838Z,0.60
2022-12-07T23:59:57.821Z,0.60
